sensor_id;sensor_type;location;lat;lon;timestamp;P1;durP1;ratioP1;P2;durP2;ratioP2
10031;SDS011;5056;44.272;19.892;2023-08-30T00:01:49;7.13;;;6.40;;
10031;SDS011;5056;44.272;19.892;2023-08-30T00:07:34;6.90;;;6.22;;
10031;SDS011;5056;44.272;19.892;2023-08-30T00:10:09;6.80;;;6.28;;
10031;SDS011;5056;44.272;19.892;2023-08-30T00:12:45;5.90;;;5.30;;
10031;SDS011;5056;44.272;19.892;2023-08-30T00:15:18;8.00;;;5.30;;
10031;SDS011;5056;44.272;19.892;2023-08-30T00:17:45;5.55;;;5.05;;
10031;SDS011;5056;44.272;19.892;2023-08-30T00:20:16;5.30;;;4.80;;
10031;SDS011;5056;44.272;19.892;2023-08-30T00:22:44;8.30;;;4.72;;
10031;SDS011;5056;44.272;19.892;2023-08-30T00:27:44;5.05;;;4.60;;
10031;SDS011;5056;44.272;19.892;2023-08-30T00:30:11;7.47;;;5.38;;
10031;SDS011;5056;44.272;19.892;2023-08-30T00:32:40;5.68;;;5.20;;
10031;SDS011;5056;44.272;19.892;2023-08-30T00:35:08;8.50;;;6.55;;
10031;SDS011;5056;44.272;19.892;2023-08-30T00:37:36;6.60;;;5.75;;
10031;SDS011;5056;44.272;19.892;2023-08-30T00:40:03;8.07;;;6.60;;
10031;SDS011;5056;44.272;19.892;2023-08-30T00:42:33;6.63;;;6.03;;
10031;SDS011;5056;44.272;19.892;2023-08-30T00:45:00;7.50;;;6.75;;
10031;SDS011;5056;44.272;19.892;2023-08-30T00:47:27;8.90;;;6.75;;
10031;SDS011;5056;44.272;19.892;2023-08-30T00:49:57;6.28;;;5.20;;
10031;SDS011;5056;44.272;19.892;2023-08-30T00:52:27;7.35;;;5.75;;
10031;SDS011;5056;44.272;19.892;2023-08-30T00:54:55;6.38;;;5.78;;
10031;SDS011;5056;44.272;19.892;2023-08-30T01:00:01;6.88;;;6.18;;
10031;SDS011;5056;44.272;19.892;2023-08-30T01:02:31;7.05;;;6.43;;
10031;SDS011;5056;44.272;19.892;2023-08-30T01:04:58;6.07;;;5.47;;
10031;SDS011;5056;44.272;19.892;2023-08-30T01:07:25;6.97;;;5.50;;
10031;SDS011;5056;44.272;19.892;2023-08-30T01:09:54;5.68;;;5.15;;
10031;SDS011;5056;44.272;19.892;2023-08-30T01:12:23;9.48;;;5.68;;
10031;SDS011;5056;44.272;19.892;2023-08-30T01:14:56;7.00;;;4.57;;
10031;SDS011;5056;44.272;19.892;2023-08-30T01:17:25;6.28;;;5.07;;
10031;SDS011;5056;44.272;19.892;2023-08-30T01:19:56;4.80;;;4.40;;
10031;SDS011;5056;44.272;19.892;2023-08-30T01:22:29;6.40;;;4.30;;
10031;SDS011;5056;44.272;19.892;2023-08-30T01:25:08;4.68;;;4.20;;
10031;SDS011;5056;44.272;19.892;2023-08-30T01:27:44;4.93;;;4.20;;
10031;SDS011;5056;44.272;19.892;2023-08-30T01:30:12;5.25;;;4.32;;
10031;SDS011;5056;44.272;19.892;2023-08-30T01:32:40;6.63;;;4.32;;
10031;SDS011;5056;44.272;19.892;2023-08-30T01:35:07;6.43;;;5.00;;
10031;SDS011;5056;44.272;19.892;2023-08-30T01:37:36;4.80;;;4.35;;
10031;SDS011;5056;44.272;19.892;2023-08-30T01:40:06;5.45;;;4.40;;
10031;SDS011;5056;44.272;19.892;2023-08-30T01:42:35;7.25;;;4.50;;
10031;SDS011;5056;44.272;19.892;2023-08-30T01:45:05;7.68;;;4.50;;
10031;SDS011;5056;44.272;19.892;2023-08-30T01:47:34;4.35;;;4.00;;
10031;SDS011;5056;44.272;19.892;2023-08-30T01:50:03;8.23;;;4.65;;
10031;SDS011;5056;44.272;19.892;2023-08-30T01:52:31;5.75;;;4.03;;
10031;SDS011;5056;44.272;19.892;2023-08-30T01:54:59;5.60;;;3.63;;
10031;SDS011;5056;44.272;19.892;2023-08-30T01:57:28;9.07;;;4.22;;
10031;SDS011;5056;44.272;19.892;2023-08-30T01:59:55;5.05;;;3.92;;
10031;SDS011;5056;44.272;19.892;2023-08-30T02:02:24;5.07;;;4.07;;
10031;SDS011;5056;44.272;19.892;2023-08-30T02:07:49;4.95;;;4.10;;
10031;SDS011;5056;44.272;19.892;2023-08-30T02:10:21;5.75;;;4.15;;
10031;SDS011;5056;44.272;19.892;2023-08-30T02:12:52;5.13;;;3.40;;
10031;SDS011;5056;44.272;19.892;2023-08-30T02:15:23;4.13;;;3.72;;
10031;SDS011;5056;44.272;19.892;2023-08-30T02:17:52;3.63;;;3.38;;
10031;SDS011;5056;44.272;19.892;2023-08-30T02:20:19;5.22;;;3.63;;
10031;SDS011;5056;44.272;19.892;2023-08-30T02:22:48;5.90;;;3.80;;
10031;SDS011;5056;44.272;19.892;2023-08-30T02:25:16;4.93;;;3.92;;
10031;SDS011;5056;44.272;19.892;2023-08-30T02:27:43;4.18;;;3.60;;
10031;SDS011;5056;44.272;19.892;2023-08-30T02:30:10;3.47;;;3.17;;
10031;SDS011;5056;44.272;19.892;2023-08-30T02:32:38;4.05;;;3.58;;
10031;SDS011;5056;44.272;19.892;2023-08-30T02:35:09;4.13;;;3.72;;
10031;SDS011;5056;44.272;19.892;2023-08-30T02:37:37;3.63;;;2.88;;
10031;SDS011;5056;44.272;19.892;2023-08-30T02:40:05;3.58;;;3.28;;
10031;SDS011;5056;44.272;19.892;2023-08-30T02:42:34;3.97;;;3.47;;
10031;SDS011;5056;44.272;19.892;2023-08-30T02:48:09;3.45;;;2.95;;
10031;SDS011;5056;44.272;19.892;2023-08-30T02:50:37;4.50;;;3.00;;
10031;SDS011;5056;44.272;19.892;2023-08-30T02:53:04;3.10;;;2.80;;
10031;SDS011;5056;44.272;19.892;2023-08-30T02:55:33;5.45;;;3.03;;
10031;SDS011;5056;44.272;19.892;2023-08-30T02:58:00;5.07;;;2.90;;
10031;SDS011;5056;44.272;19.892;2023-08-30T03:00:27;2.92;;;2.72;;
10031;SDS011;5056;44.272;19.892;2023-08-30T03:02:54;2.95;;;2.75;;
10031;SDS011;5056;44.272;19.892;2023-08-30T03:05:22;3.15;;;2.45;;
10031;SDS011;5056;44.272;19.892;2023-08-30T03:07:52;3.75;;;3.30;;
10031;SDS011;5056;44.272;19.892;2023-08-30T03:10:19;3.10;;;2.85;;
10031;SDS011;5056;44.272;19.892;2023-08-30T03:12:46;4.15;;;2.95;;
10031;SDS011;5056;44.272;19.892;2023-08-30T03:15:13;5.22;;;3.25;;
10031;SDS011;5056;44.272;19.892;2023-08-30T03:17:41;5.18;;;3.10;;
10031;SDS011;5056;44.272;19.892;2023-08-30T03:20:11;4.43;;;3.30;;
10031;SDS011;5056;44.272;19.892;2023-08-30T03:22:38;5.40;;;3.35;;
10031;SDS011;5056;44.272;19.892;2023-08-30T03:25:07;3.90;;;3.30;;
10031;SDS011;5056;44.272;19.892;2023-08-30T03:27:34;3.97;;;3.28;;
10031;SDS011;5056;44.272;19.892;2023-08-30T03:30:02;3.50;;;3.28;;
10031;SDS011;5056;44.272;19.892;2023-08-30T03:32:29;4.60;;;3.72;;
10031;SDS011;5056;44.272;19.892;2023-08-30T03:34:58;4.05;;;3.28;;
10031;SDS011;5056;44.272;19.892;2023-08-30T03:37:25;5.00;;;3.25;;
10031;SDS011;5056;44.272;19.892;2023-08-30T03:39:52;3.80;;;3.17;;
10031;SDS011;5056;44.272;19.892;2023-08-30T03:42:21;4.55;;;4.07;;
10031;SDS011;5056;44.272;19.892;2023-08-30T03:44:52;5.60;;;3.65;;
10031;SDS011;5056;44.272;19.892;2023-08-30T03:47:20;3.85;;;3.53;;
10031;SDS011;5056;44.272;19.892;2023-08-30T03:49:47;6.72;;;3.33;;
10031;SDS011;5056;44.272;19.892;2023-08-30T03:52:14;4.68;;;3.28;;
10031;SDS011;5056;44.272;19.892;2023-08-30T03:54:41;6.05;;;3.75;;
10031;SDS011;5056;44.272;19.892;2023-08-30T03:57:08;4.35;;;3.13;;
10031;SDS011;5056;44.272;19.892;2023-08-30T03:59:37;5.22;;;3.33;;
10031;SDS011;5056;44.272;19.892;2023-08-30T04:02:04;4.18;;;2.80;;
10031;SDS011;5056;44.272;19.892;2023-08-30T04:04:31;3.80;;;3.28;;
10031;SDS011;5056;44.272;19.892;2023-08-30T04:06:58;4.45;;;3.17;;
10031;SDS011;5056;44.272;19.892;2023-08-30T04:09:26;3.83;;;3.15;;
10031;SDS011;5056;44.272;19.892;2023-08-30T04:11:52;4.53;;;2.90;;
10031;SDS011;5056;44.272;19.892;2023-08-30T04:14:20;5.10;;;3.60;;
10031;SDS011;5056;44.272;19.892;2023-08-30T04:16:49;4.35;;;3.60;;
10031;SDS011;5056;44.272;19.892;2023-08-30T04:19:16;4.78;;;3.08;;
10031;SDS011;5056;44.272;19.892;2023-08-30T04:21:43;4.70;;;3.42;;
10031;SDS011;5056;44.272;19.892;2023-08-30T04:24:10;9.65;;;3.75;;
10031;SDS011;5056;44.272;19.892;2023-08-30T04:26:39;6.30;;;3.58;;
10031;SDS011;5056;44.272;19.892;2023-08-30T04:29:06;8.15;;;4.20;;
10031;SDS011;5056;44.272;19.892;2023-08-30T04:31:33;4.07;;;3.25;;
10031;SDS011;5056;44.272;19.892;2023-08-30T04:34:02;4.72;;;4.10;;
10031;SDS011;5056;44.272;19.892;2023-08-30T04:36:29;5.40;;;4.03;;
10031;SDS011;5056;44.272;19.892;2023-08-30T04:38:56;4.70;;;3.47;;
10031;SDS011;5056;44.272;19.892;2023-08-30T04:41:24;4.45;;;2.97;;
10031;SDS011;5056;44.272;19.892;2023-08-30T04:43:51;3.90;;;2.83;;
10031;SDS011;5056;44.272;19.892;2023-08-30T04:46:18;6.53;;;3.10;;
10031;SDS011;5056;44.272;19.892;2023-08-30T04:48:46;3.50;;;3.20;;
10031;SDS011;5056;44.272;19.892;2023-08-30T04:51:15;3.45;;;3.10;;
10031;SDS011;5056;44.272;19.892;2023-08-30T04:53:41;7.20;;;3.30;;
10031;SDS011;5056;44.272;19.892;2023-08-30T04:56:14;5.22;;;3.40;;
10031;SDS011;5056;44.272;19.892;2023-08-30T04:58:44;5.82;;;2.95;;
10031;SDS011;5056;44.272;19.892;2023-08-30T05:01:11;3.92;;;3.25;;
10031;SDS011;5056;44.272;19.892;2023-08-30T05:03:38;4.15;;;2.85;;
10031;SDS011;5056;44.272;19.892;2023-08-30T05:06:05;4.68;;;3.00;;
10031;SDS011;5056;44.272;19.892;2023-08-30T05:08:34;7.70;;;3.80;;
10031;SDS011;5056;44.272;19.892;2023-08-30T05:11:01;4.65;;;3.00;;
10031;SDS011;5056;44.272;19.892;2023-08-30T05:13:29;4.03;;;2.45;;
10031;SDS011;5056;44.272;19.892;2023-08-30T05:15:56;4.55;;;3.10;;
10031;SDS011;5056;44.272;19.892;2023-08-30T05:18:24;4.53;;;3.10;;
10031;SDS011;5056;44.272;19.892;2023-08-30T05:20:50;5.68;;;3.38;;
10031;SDS011;5056;44.272;19.892;2023-08-30T05:23:17;3.45;;;3.15;;
10031;SDS011;5056;44.272;19.892;2023-08-30T05:25:46;3.33;;;3.03;;
10031;SDS011;5056;44.272;19.892;2023-08-30T05:28:13;5.20;;;4.10;;
10031;SDS011;5056;44.272;19.892;2023-08-30T05:30:41;8.02;;;6.85;;
10031;SDS011;5056;44.272;19.892;2023-08-30T05:33:10;7.63;;;6.82;;
10031;SDS011;5056;44.272;19.892;2023-08-30T05:35:38;10.65;;;7.47;;
10031;SDS011;5056;44.272;19.892;2023-08-30T05:38:06;8.32;;;7.45;;
10031;SDS011;5056;44.272;19.892;2023-08-30T05:40:32;9.15;;;7.88;;
10031;SDS011;5056;44.272;19.892;2023-08-30T05:43:03;11.43;;;6.72;;
10031;SDS011;5056;44.272;19.892;2023-08-30T05:45:30;5.53;;;4.93;;
10031;SDS011;5056;44.272;19.892;2023-08-30T05:47:57;5.40;;;4.90;;
10031;SDS011;5056;44.272;19.892;2023-08-30T05:50:24;5.97;;;5.28;;
10031;SDS011;5056;44.272;19.892;2023-08-30T05:52:52;7.18;;;5.72;;
10031;SDS011;5056;44.272;19.892;2023-08-30T05:55:20;8.10;;;5.30;;
10031;SDS011;5056;44.272;19.892;2023-08-30T05:57:50;6.25;;;5.60;;
10031;SDS011;5056;44.272;19.892;2023-08-30T06:00:19;7.13;;;5.47;;
10031;SDS011;5056;44.272;19.892;2023-08-30T06:02:47;7.93;;;5.88;;
10031;SDS011;5056;44.272;19.892;2023-08-30T06:05:17;8.63;;;6.22;;
10031;SDS011;5056;44.272;19.892;2023-08-30T06:07:44;6.35;;;5.75;;
10031;SDS011;5056;44.272;19.892;2023-08-30T06:10:12;8.02;;;5.85;;
10031;SDS011;5056;44.272;19.892;2023-08-30T06:12:40;6.00;;;4.45;;
10031;SDS011;5056;44.272;19.892;2023-08-30T06:15:08;4.85;;;4.20;;
10031;SDS011;5056;44.272;19.892;2023-08-30T06:17:37;4.78;;;4.28;;
10031;SDS011;5056;44.272;19.892;2023-08-30T06:20:04;5.32;;;3.75;;
10031;SDS011;5056;44.272;19.892;2023-08-30T06:22:32;5.20;;;4.07;;
10031;SDS011;5056;44.272;19.892;2023-08-30T06:24:59;6.30;;;4.15;;
10031;SDS011;5056;44.272;19.892;2023-08-30T06:27:26;5.20;;;4.05;;
10031;SDS011;5056;44.272;19.892;2023-08-30T06:29:53;4.47;;;3.50;;
10031;SDS011;5056;44.272;19.892;2023-08-30T06:32:19;4.18;;;3.78;;
10031;SDS011;5056;44.272;19.892;2023-08-30T06:34:48;4.72;;;4.00;;
10031;SDS011;5056;44.272;19.892;2023-08-30T06:37:15;4.80;;;4.40;;
10031;SDS011;5056;44.272;19.892;2023-08-30T06:39:43;5.85;;;5.03;;
10031;SDS011;5056;44.272;19.892;2023-08-30T06:42:11;5.43;;;4.18;;
10031;SDS011;5056;44.272;19.892;2023-08-30T06:44:38;3.95;;;3.65;;
10031;SDS011;5056;44.272;19.892;2023-08-30T06:47:05;5.63;;;4.15;;
10031;SDS011;5056;44.272;19.892;2023-08-30T06:49:33;6.45;;;4.35;;
10031;SDS011;5056;44.272;19.892;2023-08-30T06:52:02;9.63;;;4.50;;
10031;SDS011;5056;44.272;19.892;2023-08-30T06:54:32;5.70;;;4.75;;
10031;SDS011;5056;44.272;19.892;2023-08-30T06:57:00;7.97;;;4.65;;
10031;SDS011;5056;44.272;19.892;2023-08-30T06:59:28;14.93;;;6.53;;
10031;SDS011;5056;44.272;19.892;2023-08-30T07:01:55;10.15;;;7.43;;
10031;SDS011;5056;44.272;19.892;2023-08-30T07:04:22;22.90;;;6.18;;
10031;SDS011;5056;44.272;19.892;2023-08-30T07:06:50;10.38;;;5.15;;
10031;SDS011;5056;44.272;19.892;2023-08-30T07:11:57;7.85;;;5.00;;
10031;SDS011;5056;44.272;19.892;2023-08-30T07:14:24;8.05;;;4.28;;
10031;SDS011;5056;44.272;19.892;2023-08-30T07:16:51;7.70;;;4.88;;
10031;SDS011;5056;44.272;19.892;2023-08-30T07:19:18;7.00;;;4.85;;
10031;SDS011;5056;44.272;19.892;2023-08-30T07:21:45;9.15;;;5.03;;
10031;SDS011;5056;44.272;19.892;2023-08-30T07:24:13;10.20;;;5.88;;
10031;SDS011;5056;44.272;19.892;2023-08-30T07:26:42;8.32;;;5.53;;
10031;SDS011;5056;44.272;19.892;2023-08-30T07:29:09;5.88;;;3.97;;
10031;SDS011;5056;44.272;19.892;2023-08-30T07:31:40;3.67;;;3.38;;
10031;SDS011;5056;44.272;19.892;2023-08-30T07:34:07;4.97;;;3.30;;
10031;SDS011;5056;44.272;19.892;2023-08-30T07:36:35;7.47;;;3.28;;
10031;SDS011;5056;44.272;19.892;2023-08-30T07:39:09;5.22;;;3.30;;
10031;SDS011;5056;44.272;19.892;2023-08-30T07:41:36;6.05;;;3.60;;
10031;SDS011;5056;44.272;19.892;2023-08-30T07:44:08;5.35;;;4.07;;
10031;SDS011;5056;44.272;19.892;2023-08-30T07:46:35;6.20;;;3.58;;
10031;SDS011;5056;44.272;19.892;2023-08-30T07:49:02;4.60;;;3.17;;
10031;SDS011;5056;44.272;19.892;2023-08-30T07:51:29;3.40;;;3.10;;
10031;SDS011;5056;44.272;19.892;2023-08-30T07:53:58;5.75;;;3.42;;
10031;SDS011;5056;44.272;19.892;2023-08-30T07:56:26;6.03;;;3.70;;
10031;SDS011;5056;44.272;19.892;2023-08-30T07:58:57;4.88;;;3.92;;
10031;SDS011;5056;44.272;19.892;2023-08-30T08:01:26;6.07;;;4.20;;
10031;SDS011;5056;44.272;19.892;2023-08-30T08:03:53;6.00;;;3.60;;
10031;SDS011;5056;44.272;19.892;2023-08-30T08:06:20;3.50;;;3.20;;
10031;SDS011;5056;44.272;19.892;2023-08-30T08:08:47;6.65;;;3.88;;
10031;SDS011;5056;44.272;19.892;2023-08-30T08:11:14;5.55;;;3.50;;
10031;SDS011;5056;44.272;19.892;2023-08-30T08:13:41;14.82;;;5.35;;
10031;SDS011;5056;44.272;19.892;2023-08-30T08:16:09;7.50;;;4.97;;
10031;SDS011;5056;44.272;19.892;2023-08-30T08:18:38;8.95;;;4.32;;
10031;SDS011;5056;44.272;19.892;2023-08-30T08:21:05;5.93;;;4.00;;
10031;SDS011;5056;44.272;19.892;2023-08-30T08:23:32;4.28;;;3.92;;
10031;SDS011;5056;44.272;19.892;2023-08-30T08:25:59;6.30;;;3.20;;
10031;SDS011;5056;44.272;19.892;2023-08-30T08:28:28;3.47;;;3.17;;
10031;SDS011;5056;44.272;19.892;2023-08-30T08:30:55;4.93;;;3.67;;
10031;SDS011;5056;44.272;19.892;2023-08-30T08:33:23;6.47;;;3.67;;
10031;SDS011;5056;44.272;19.892;2023-08-30T08:35:52;3.30;;;3.08;;
10031;SDS011;5056;44.272;19.892;2023-08-30T08:38:19;4.15;;;3.22;;
10031;SDS011;5056;44.272;19.892;2023-08-30T08:40:46;9.13;;;3.60;;
10031;SDS011;5056;44.272;19.892;2023-08-30T08:43:13;4.63;;;2.90;;
10031;SDS011;5056;44.272;19.892;2023-08-30T08:45:41;6.68;;;4.53;;
10031;SDS011;5056;44.272;19.892;2023-08-30T08:48:09;4.47;;;3.60;;
10031;SDS011;5056;44.272;19.892;2023-08-30T08:50:36;5.15;;;3.53;;
10031;SDS011;5056;44.272;19.892;2023-08-30T08:53:05;5.10;;;3.42;;
10031;SDS011;5056;44.272;19.892;2023-08-30T08:55:33;3.40;;;3.10;;
10031;SDS011;5056;44.272;19.892;2023-08-30T08:58:02;3.60;;;3.30;;
10031;SDS011;5056;44.272;19.892;2023-08-30T09:00:30;3.80;;;3.13;;
10031;SDS011;5056;44.272;19.892;2023-08-30T09:02:57;3.72;;;3.28;;
10031;SDS011;5056;44.272;19.892;2023-08-30T09:05:25;7.18;;;3.05;;
10031;SDS011;5056;44.272;19.892;2023-08-30T09:07:54;4.85;;;3.45;;
10031;SDS011;5056;44.272;19.892;2023-08-30T09:10:22;2.97;;;2.78;;
10031;SDS011;5056;44.272;19.892;2023-08-30T09:12:49;2.92;;;2.72;;
10031;SDS011;5056;44.272;19.892;2023-08-30T09:15:17;5.70;;;3.10;;
10031;SDS011;5056;44.272;19.892;2023-08-30T09:17:44;6.10;;;2.80;;
10031;SDS011;5056;44.272;19.892;2023-08-30T09:20:12;3.33;;;2.75;;
10031;SDS011;5056;44.272;19.892;2023-08-30T09:22:43;3.20;;;2.85;;
10031;SDS011;5056;44.272;19.892;2023-08-30T09:25:11;3.90;;;3.15;;
10031;SDS011;5056;44.272;19.892;2023-08-30T09:27:50;3.03;;;2.50;;
10031;SDS011;5056;44.272;19.892;2023-08-30T09:30:20;4.38;;;2.85;;
10031;SDS011;5056;44.272;19.892;2023-08-30T09:32:48;2.78;;;2.58;;
10031;SDS011;5056;44.272;19.892;2023-08-30T09:35:15;4.13;;;3.15;;
10031;SDS011;5056;44.272;19.892;2023-08-30T09:37:44;2.72;;;2.53;;
10031;SDS011;5056;44.272;19.892;2023-08-30T09:40:11;4.88;;;3.10;;
10031;SDS011;5056;44.272;19.892;2023-08-30T09:42:40;3.20;;;2.60;;
10031;SDS011;5056;44.272;19.892;2023-08-30T09:45:18;2.58;;;2.35;;
10031;SDS011;5056;44.272;19.892;2023-08-30T09:47:46;7.70;;;2.90;;
10031;SDS011;5056;44.272;19.892;2023-08-30T09:50:14;2.95;;;2.70;;
10031;SDS011;5056;44.272;19.892;2023-08-30T09:52:45;3.30;;;3.00;;
10031;SDS011;5056;44.272;19.892;2023-08-30T09:55:13;3.67;;;2.80;;
10031;SDS011;5056;44.272;19.892;2023-08-30T09:57:41;2.88;;;2.60;;
10031;SDS011;5056;44.272;19.892;2023-08-30T10:00:10;3.00;;;2.42;;
10031;SDS011;5056;44.272;19.892;2023-08-30T10:02:42;2.90;;;2.70;;
10031;SDS011;5056;44.272;19.892;2023-08-30T10:05:09;4.20;;;3.25;;
10031;SDS011;5056;44.272;19.892;2023-08-30T10:07:38;3.08;;;2.78;;
10031;SDS011;5056;44.272;19.892;2023-08-30T10:10:06;3.28;;;2.60;;
10031;SDS011;5056;44.272;19.892;2023-08-30T10:12:52;3.05;;;2.85;;
10031;SDS011;5056;44.272;19.892;2023-08-30T10:15:20;3.00;;;2.80;;
10031;SDS011;5056;44.272;19.892;2023-08-30T10:17:49;2.83;;;2.30;;
10031;SDS011;5056;44.272;19.892;2023-08-30T10:20:19;2.83;;;2.63;;
10031;SDS011;5056;44.272;19.892;2023-08-30T10:22:46;3.45;;;2.70;;
10031;SDS011;5056;44.272;19.892;2023-08-30T10:25:15;3.25;;;2.95;;
10031;SDS011;5056;44.272;19.892;2023-08-30T10:27:46;3.40;;;2.95;;
10031;SDS011;5056;44.272;19.892;2023-08-30T10:30:14;2.72;;;2.53;;
10031;SDS011;5056;44.272;19.892;2023-08-30T10:32:44;2.55;;;2.40;;
10031;SDS011;5056;44.272;19.892;2023-08-30T10:35:13;2.83;;;2.63;;
10031;SDS011;5056;44.272;19.892;2023-08-30T10:37:41;2.55;;;2.35;;
10031;SDS011;5056;44.272;19.892;2023-08-30T10:40:08;2.85;;;2.65;;
10031;SDS011;5056;44.272;19.892;2023-08-30T10:42:37;2.60;;;2.40;;
10031;SDS011;5056;44.272;19.892;2023-08-30T10:45:04;3.00;;;2.58;;
10031;SDS011;5056;44.272;19.892;2023-08-30T10:47:34;2.60;;;2.40;;
10031;SDS011;5056;44.272;19.892;2023-08-30T10:50:04;3.25;;;2.13;;
10031;SDS011;5056;44.272;19.892;2023-08-30T10:52:33;2.65;;;2.45;;
10031;SDS011;5056;44.272;19.892;2023-08-30T10:55:05;3.55;;;2.70;;
10031;SDS011;5056;44.272;19.892;2023-08-30T10:57:33;2.80;;;2.33;;
10031;SDS011;5056;44.272;19.892;2023-08-30T11:00:07;2.55;;;2.35;;
10031;SDS011;5056;44.272;19.892;2023-08-30T11:02:35;2.92;;;2.72;;
10031;SDS011;5056;44.272;19.892;2023-08-30T11:05:05;3.50;;;2.47;;
10031;SDS011;5056;44.272;19.892;2023-08-30T11:07:36;2.67;;;2.47;;
10031;SDS011;5056;44.272;19.892;2023-08-30T11:10:04;2.38;;;2.17;;
10031;SDS011;5056;44.272;19.892;2023-08-30T11:12:31;3.38;;;2.10;;
10031;SDS011;5056;44.272;19.892;2023-08-30T11:14:59;2.38;;;2.28;;
10031;SDS011;5056;44.272;19.892;2023-08-30T11:17:28;2.45;;;2.30;;
10031;SDS011;5056;44.272;19.892;2023-08-30T11:19:57;2.15;;;1.95;;
10031;SDS011;5056;44.272;19.892;2023-08-30T11:22:24;2.15;;;2.05;;
10031;SDS011;5056;44.272;19.892;2023-08-30T11:24:55;3.13;;;2.92;;
10031;SDS011;5056;44.272;19.892;2023-08-30T11:27:25;3.13;;;2.72;;
10031;SDS011;5056;44.272;19.892;2023-08-30T11:29:51;2.17;;;1.98;;
10031;SDS011;5056;44.272;19.892;2023-08-30T11:32:20;2.67;;;2.47;;
10031;SDS011;5056;44.272;19.892;2023-08-30T11:34:54;2.70;;;2.35;;
10031;SDS011;5056;44.272;19.892;2023-08-30T11:37:22;2.05;;;1.88;;
10031;SDS011;5056;44.272;19.892;2023-08-30T11:39:53;1.85;;;1.75;;
10031;SDS011;5056;44.272;19.892;2023-08-30T11:42:23;3.40;;;2.38;;
10031;SDS011;5056;44.272;19.892;2023-08-30T11:44:50;2.90;;;2.22;;
10031;SDS011;5056;44.272;19.892;2023-08-30T11:47:18;2.53;;;2.33;;
10031;SDS011;5056;44.272;19.892;2023-08-30T11:49:46;2.90;;;2.67;;
10031;SDS011;5056;44.272;19.892;2023-08-30T11:52:14;2.22;;;2.05;;
10031;SDS011;5056;44.272;19.892;2023-08-30T11:54:43;2.90;;;2.22;;
10031;SDS011;5056;44.272;19.892;2023-08-30T11:57:12;2.25;;;2.13;;
10031;SDS011;5056;44.272;19.892;2023-08-30T11:59:39;2.40;;;1.60;;
10031;SDS011;5056;44.272;19.892;2023-08-30T12:02:07;2.22;;;2.05;;
10031;SDS011;5056;44.272;19.892;2023-08-30T12:04:39;2.28;;;1.80;;
10031;SDS011;5056;44.272;19.892;2023-08-30T12:07:08;1.77;;;1.67;;
10031;SDS011;5056;44.272;19.892;2023-08-30T12:09:36;2.17;;;2.08;;
10031;SDS011;5056;44.272;19.892;2023-08-30T12:12:06;2.20;;;2.10;;
10031;SDS011;5056;44.272;19.892;2023-08-30T12:14:38;2.28;;;2.03;;
10031;SDS011;5056;44.272;19.892;2023-08-30T12:17:08;2.38;;;2.10;;
10031;SDS011;5056;44.272;19.892;2023-08-30T12:19:37;1.73;;;1.63;;
10031;SDS011;5056;44.272;19.892;2023-08-30T12:22:05;2.13;;;2.03;;
10031;SDS011;5056;44.272;19.892;2023-08-30T12:24:42;2.15;;;2.05;;
10031;SDS011;5056;44.272;19.892;2023-08-30T12:27:12;2.33;;;2.13;;
10031;SDS011;5056;44.272;19.892;2023-08-30T12:29:42;2.25;;;2.05;;
10031;SDS011;5056;44.272;19.892;2023-08-30T12:32:09;2.05;;;1.92;;
10031;SDS011;5056;44.272;19.892;2023-08-30T12:34:36;2.38;;;2.10;;
10031;SDS011;5056;44.272;19.892;2023-08-30T12:37:05;2.63;;;2.42;;
10031;SDS011;5056;44.272;19.892;2023-08-30T12:39:33;2.40;;;2.17;;
10031;SDS011;5056;44.272;19.892;2023-08-30T12:45:36;2.45;;;2.30;;
10031;SDS011;5056;44.272;19.892;2023-08-30T12:48:06;2.00;;;1.80;;
10031;SDS011;5056;44.272;19.892;2023-08-30T12:50:35;1.77;;;1.67;;
10031;SDS011;5056;44.272;19.892;2023-08-30T12:53:04;1.77;;;1.67;;
10031;SDS011;5056;44.272;19.892;2023-08-30T12:55:31;10.95;;;3.70;;
10031;SDS011;5056;44.272;19.892;2023-08-30T12:58:00;4.00;;;2.72;;
10031;SDS011;5056;44.272;19.892;2023-08-30T13:00:39;3.03;;;2.45;;
10031;SDS011;5056;44.272;19.892;2023-08-30T13:03:07;2.80;;;2.28;;
10031;SDS011;5056;44.272;19.892;2023-08-30T13:05:35;2.30;;;2.08;;
10031;SDS011;5056;44.272;19.892;2023-08-30T13:08:03;3.17;;;2.17;;
10031;SDS011;5056;44.272;19.892;2023-08-30T13:10:33;2.05;;;1.92;;
10031;SDS011;5056;44.272;19.892;2023-08-30T13:13:00;1.63;;;1.52;;
10031;SDS011;5056;44.272;19.892;2023-08-30T13:15:30;8.02;;;3.63;;
10031;SDS011;5056;44.272;19.892;2023-08-30T13:17:57;3.17;;;2.90;;
10031;SDS011;5056;44.272;19.892;2023-08-30T13:20:24;2.97;;;2.42;;
10031;SDS011;5056;44.272;19.892;2023-08-30T13:22:53;2.15;;;2.00;;
10031;SDS011;5056;44.272;19.892;2023-08-30T13:25:20;1.85;;;1.75;;
10031;SDS011;5056;44.272;19.892;2023-08-30T13:27:49;2.25;;;2.05;;
10031;SDS011;5056;44.272;19.892;2023-08-30T13:30:16;2.55;;;2.13;;
10031;SDS011;5056;44.272;19.892;2023-08-30T13:32:48;1.90;;;1.80;;
10031;SDS011;5056;44.272;19.892;2023-08-30T13:35:15;1.92;;;1.83;;
10031;SDS011;5056;44.272;19.892;2023-08-30T13:37:42;2.03;;;1.92;;
10031;SDS011;5056;44.272;19.892;2023-08-30T13:40:11;2.45;;;2.25;;
10031;SDS011;5056;44.272;19.892;2023-08-30T13:42:52;2.40;;;2.20;;
10031;SDS011;5056;44.272;19.892;2023-08-30T13:45:19;2.22;;;2.03;;
10031;SDS011;5056;44.272;19.892;2023-08-30T13:51:20;2.08;;;1.90;;
10031;SDS011;5056;44.272;19.892;2023-08-30T13:53:48;3.80;;;2.58;;
10031;SDS011;5056;44.272;19.892;2023-08-30T13:56:19;2.47;;;2.05;;
10031;SDS011;5056;44.272;19.892;2023-08-30T13:58:49;4.28;;;2.25;;
10031;SDS011;5056;44.272;19.892;2023-08-30T14:01:18;2.55;;;2.28;;
10031;SDS011;5056;44.272;19.892;2023-08-30T14:03:48;3.40;;;2.35;;
10031;SDS011;5056;44.272;19.892;2023-08-30T14:06:17;6.07;;;3.05;;
10031;SDS011;5056;44.272;19.892;2023-08-30T14:08:44;5.55;;;4.07;;
10031;SDS011;5056;44.272;19.892;2023-08-30T14:11:24;4.80;;;3.92;;
10031;SDS011;5056;44.272;19.892;2023-08-30T14:13:52;3.50;;;3.20;;
10031;SDS011;5056;44.272;19.892;2023-08-30T14:16:20;4.35;;;2.78;;
10031;SDS011;5056;44.272;19.892;2023-08-30T14:18:49;2.92;;;2.35;;
10031;SDS011;5056;44.272;19.892;2023-08-30T14:21:18;2.70;;;2.50;;
10031;SDS011;5056;44.272;19.892;2023-08-30T14:23:46;2.95;;;2.22;;
10031;SDS011;5056;44.272;19.892;2023-08-30T14:26:19;2.58;;;2.33;;
10031;SDS011;5056;44.272;19.892;2023-08-30T14:28:49;2.72;;;2.53;;
10031;SDS011;5056;44.272;19.892;2023-08-30T14:31:16;2.60;;;2.40;;
10031;SDS011;5056;44.272;19.892;2023-08-30T14:33:46;2.95;;;2.60;;
10031;SDS011;5056;44.272;19.892;2023-08-30T14:36:13;2.55;;;2.42;;
10031;SDS011;5056;44.272;19.892;2023-08-30T14:38:43;3.60;;;3.30;;
10031;SDS011;5056;44.272;19.892;2023-08-30T14:41:11;3.05;;;2.85;;
10031;SDS011;5056;44.272;19.892;2023-08-30T14:43:41;2.72;;;2.53;;
10031;SDS011;5056;44.272;19.892;2023-08-30T14:46:08;4.00;;;2.83;;
10031;SDS011;5056;44.272;19.892;2023-08-30T14:48:41;3.17;;;2.65;;
10031;SDS011;5056;44.272;19.892;2023-08-30T14:51:11;2.65;;;2.45;;
10031;SDS011;5056;44.272;19.892;2023-08-30T14:53:39;3.83;;;2.50;;
10031;SDS011;5056;44.272;19.892;2023-08-30T14:56:10;2.80;;;2.60;;
10031;SDS011;5056;44.272;19.892;2023-08-30T14:58:37;2.22;;;2.03;;
10031;SDS011;5056;44.272;19.892;2023-08-30T15:01:05;2.58;;;2.38;;
10031;SDS011;5056;44.272;19.892;2023-08-30T15:03:32;2.92;;;2.60;;
10031;SDS011;5056;44.272;19.892;2023-08-30T15:05:59;2.47;;;2.28;;
10031;SDS011;5056;44.272;19.892;2023-08-30T15:08:26;2.70;;;2.40;;
10031;SDS011;5056;44.272;19.892;2023-08-30T15:10:54;2.50;;;2.30;;
10031;SDS011;5056;44.272;19.892;2023-08-30T15:13:24;2.38;;;2.28;;
10031;SDS011;5056;44.272;19.892;2023-08-30T15:15:51;2.72;;;2.53;;
10031;SDS011;5056;44.272;19.892;2023-08-30T15:18:19;3.20;;;2.75;;
10031;SDS011;5056;44.272;19.892;2023-08-30T15:20:47;4.53;;;2.80;;